sensor_id;sensor_type;location;lat;lon;timestamp;pressure;altitude;pressure_sealevel;temperature;humidity
47670;BME280;33408;52.062;11.722;2022-09-30T00:01:51;100384.84;;;7.37;100.00
47670;BME280;33408;52.062;11.722;2022-09-30T00:04:20;100385.75;;;7.34;100.00
47670;BME280;33408;52.062;11.722;2022-09-30T00:06:47;100377.19;;;7.27;100.00
47670;BME280;33408;52.062;11.722;2022-09-30T00:09:15;100378.91;;;7.30;100.00
47670;BME280;33408;52.062;11.722;2022-09-30T00:11:43;100374.66;;;7.24;100.00
47670;BME280;33408;52.062;11.722;2022-09-30T00:14:13;100369.50;;;7.24;100.00
47670;BME280;33408;52.062;11.722;2022-09-30T00:16:40;100383.31;;;7.20;100.00
47670;BME280;33408;52.062;11.722;2022-09-30T00:19:06;100380.78;;;7.16;100.00
47670;BME280;33408;52.062;11.722;2022-09-30T00:21:33;100381.56;;;7.21;100.00
47670;BME280;33408;52.062;11.722;2022-09-30T00:24:00;100377.34;;;7.14;100.00
47670;BME280;33408;52.062;11.722;2022-09-30T00:26:26;100383.41;;;7.08;100.00
47670;BME280;33408;52.062;11.722;2022-09-30T00:28:55;100385.97;;;7.09;100.00
47670;BME280;33408;52.062;11.722;2022-09-30T00:31:24;100381.72;;;7.07;100.00
47670;BME280;33408;52.062;11.722;2022-09-30T00:33:51;100389.44;;;7.08;100.00
47670;BME280;33408;52.062;11.722;2022-09-30T00:36:32;100394.72;;;6.94;100.00
47670;BME280;33408;52.062;11.722;2022-09-30T00:38:59;100391.28;;;6.96;100.00
47670;BME280;33408;52.062;11.722;2022-09-30T00:41:26;100399.94;;;6.87;100.00
47670;BME280;33408;52.062;11.722;2022-09-30T00:43:54;100403.50;;;6.69;100.00
47670;BME280;33408;52.062;11.722;2022-09-30T00:46:26;100401.78;;;6.69;100.00
47670;BME280;33408;52.062;11.722;2022-09-30T00:48:57;100404.34;;;6.72;100.00
47670;BME280;33408;52.062;11.722;2022-09-30T00:51:28;100411.19;;;6.78;100.00
47670;BME280;33408;52.062;11.722;2022-09-30T00:53:58;100410.31;;;6.78;100.00
47670;BME280;33408;52.062;11.722;2022-09-30T00:56:29;100416.34;;;6.77;100.00
47670;BME280;33408;52.062;11.722;2022-09-30T00:59:02;100410.38;;;6.73;100.00
47670;BME280;33408;52.062;11.722;2022-09-30T01:01:30;100412.06;;;6.71;100.00
47670;BME280;33408;52.062;11.722;2022-09-30T01:03:59;100417.22;;;6.71;100.00
47670;BME280;33408;52.062;11.722;2022-09-30T01:06:26;100421.66;;;6.52;100.00
47670;BME280;33408;52.062;11.722;2022-09-30T01:08:53;100414.03;;;6.39;100.00
47670;BME280;33408;52.062;11.722;2022-09-30T01:11:22;100414.84;;;6.45;100.00
47670;BME280;33408;52.062;11.722;2022-09-30T01:13:51;100414.88;;;6.42;100.00
47670;BME280;33408;52.062;11.722;2022-09-30T01:16:35;100415.72;;;6.42;100.00
47670;BME280;33408;52.062;11.722;2022-09-30T01:19:23;100415.78;;;6.33;100.00
47670;BME280;33408;52.062;11.722;2022-09-30T01:22:08;100405.53;;;6.28;100.00
47670;BME280;33408;52.062;11.722;2022-09-30T01:24:46;100411.53;;;6.27;100.00
47670;BME280;33408;52.062;11.722;2022-09-30T01:27:43;100408.91;;;6.32;100.00
47670;BME280;33408;52.062;11.722;2022-09-30T01:30:15;100406.34;;;6.32;100.00
47670;BME280;33408;52.062;11.722;2022-09-30T01:33:10;100408.09;;;6.31;100.00
47670;BME280;33408;52.062;11.722;2022-09-30T01:35:55;100404.63;;;6.32;100.00
47670;BME280;33408;52.062;11.722;2022-09-30T01:38:27;100399.44;;;6.35;100.00
47670;BME280;33408;52.062;11.722;2022-09-30T01:41:01;100403.75;;;6.33;100.00
47670;BME280;33408;52.062;11.722;2022-09-30T01:43:36;100407.19;;;6.32;100.00
47670;BME280;33408;52.062;11.722;2022-09-30T01:46:13;100399.44;;;6.38;100.00
47670;BME280;33408;52.062;11.722;2022-09-30T01:48:50;100405.47;;;6.36;100.00
47670;BME280;33408;52.062;11.722;2022-09-30T01:51:26;100404.59;;;6.35;100.00
47670;BME280;33408;52.062;11.722;2022-09-30T01:53:58;100404.59;;;6.35;100.00
47670;BME280;33408;52.062;11.722;2022-09-30T01:56:33;100416.63;;;6.35;100.00
47670;BME280;33408;52.062;11.722;2022-09-30T01:59:03;100417.47;;;6.38;100.00
47670;BME280;33408;52.062;11.722;2022-09-30T02:01:36;100420.94;;;6.34;100.00
47670;BME280;33408;52.062;11.722;2022-09-30T02:04:08;100425.28;;;6.23;100.00
47670;BME280;33408;52.062;11.722;2022-09-30T02:06:40;100427.88;;;6.22;100.00
47670;BME280;33408;52.062;11.722;2022-09-30T02:09:12;100418.44;;;6.16;100.00
47670;BME280;33408;52.062;11.722;2022-09-30T02:11:40;100413.25;;;6.27;100.00
47670;BME280;33408;52.062;11.722;2022-09-30T02:14:09;100419.31;;;6.15;100.00
47670;BME280;33408;52.062;11.722;2022-09-30T02:16:42;100431.31;;;6.17;100.00
47670;BME280;33408;52.062;11.722;2022-09-30T02:19:17;100428.75;;;6.14;100.00
47670;BME280;33408;52.062;11.722;2022-09-30T02:21:47;100430.47;;;6.14;100.00
47670;BME280;33408;52.062;11.722;2022-09-30T02:24:18;100427.94;;;6.09;100.00
47670;BME280;33408;52.062;11.722;2022-09-30T02:26:50;100425.38;;;6.06;100.00
47670;BME280;33408;52.062;11.722;2022-09-30T02:29:21;100427.09;;;6.01;100.00
47670;BME280;33408;52.062;11.722;2022-09-30T02:31:52;100433.09;;;6.00;100.00
47670;BME280;33408;52.062;11.722;2022-09-30T02:34:25;100429.69;;;5.92;100.00
47670;BME280;33408;52.062;11.722;2022-09-30T02:36:56;100422.81;;;5.89;100.00
47670;BME280;33408;52.062;11.722;2022-09-30T02:39:28;100425.38;;;5.91;100.00
47670;BME280;33408;52.062;11.722;2022-09-30T02:42:01;100425.38;;;5.89;100.00
47670;BME280;33408;52.062;11.722;2022-09-30T02:44:30;100435.72;;;5.83;100.00
47670;BME280;33408;52.062;11.722;2022-09-30T02:47:03;100427.16;;;5.78;100.00
47670;BME280;33408;52.062;11.722;2022-09-30T02:49:39;100434.03;;;5.79;100.00
47670;BME280;33408;52.062;11.722;2022-09-30T02:52:21;100432.28;;;5.79;100.00
47670;BME280;33408;52.062;11.722;2022-09-30T02:54:58;100434.03;;;5.74;100.00
47670;BME280;33408;52.062;11.722;2022-09-30T02:57:34;100430.63;;;5.74;100.00
47670;BME280;33408;52.062;11.722;2022-09-30T03:00:04;100431.47;;;5.71;100.00
47670;BME280;33408;52.062;11.722;2022-09-30T03:02:31;100432.28;;;5.78;100.00
47670;BME280;33408;52.062;11.722;2022-09-30T03:04:59;100437.44;;;5.76;100.00
47670;BME280;33408;52.062;11.722;2022-09-30T03:07:26;100438.34;;;5.72;100.00
47670;BME280;33408;52.062;11.722;2022-09-30T03:09:55;100439.19;;;5.73;100.00
47670;BME280;33408;52.062;11.722;2022-09-30T03:12:33;100436.59;;;5.74;100.00
47670;BME280;33408;52.062;11.722;2022-09-30T03:15:20;100438.34;;;5.71;100.00
47670;BME280;33408;52.062;11.722;2022-09-30T03:17:58;100449.47;;;5.74;100.00
47670;BME280;33408;52.062;11.722;2022-09-30T03:20:38;100439.19;;;5.65;100.00
47670;BME280;33408;52.062;11.722;2022-09-30T03:23:21;100451.22;;;5.58;100.00
47670;BME280;33408;52.062;11.722;2022-09-30T03:25:59;100457.25;;;5.51;100.00
47670;BME280;33408;52.062;11.722;2022-09-30T03:28:31;100458.94;;;5.54;100.00
47670;BME280;33408;52.062;11.722;2022-09-30T03:31:04;100470.09;;;5.53;100.00
47670;BME280;33408;52.062;11.722;2022-09-30T03:33:40;100470.97;;;5.45;100.00
47670;BME280;33408;52.062;11.722;2022-09-30T03:36:19;100476.09;;;5.42;100.00
47670;BME280;33408;52.062;11.722;2022-09-30T03:38:54;100476.97;;;5.30;100.00
47670;BME280;33408;52.062;11.722;2022-09-30T03:41:31;100478.72;;;5.27;100.00
47670;BME280;33408;52.062;11.722;2022-09-30T03:44:06;100471.88;;;5.14;100.00
47670;BME280;33408;52.062;11.722;2022-09-30T03:46:37;100476.97;;;5.17;100.00
47670;BME280;33408;52.062;11.722;2022-09-30T03:49:10;100484.69;;;5.18;100.00
47670;BME280;33408;52.062;11.722;2022-09-30T03:51:40;100490.69;;;5.14;100.00
47670;BME280;33408;52.062;11.722;2022-09-30T03:54:08;100486.41;;;5.15;100.00
47670;BME280;33408;52.062;11.722;2022-09-30T03:56:36;100493.25;;;5.00;100.00
47670;BME280;33408;52.062;11.722;2022-09-30T03:59:09;100499.28;;;4.98;100.00
47670;BME280;33408;52.062;11.722;2022-09-30T04:01:36;100500.97;;;5.06;100.00
47670;BME280;33408;52.062;11.722;2022-09-30T04:04:03;100500.13;;;5.07;100.00
47670;BME280;33408;52.062;11.722;2022-09-30T04:06:30;100511.25;;;5.19;100.00
47670;BME280;33408;52.062;11.722;2022-09-30T04:08:58;100515.53;;;5.26;100.00
47670;BME280;33408;52.062;11.722;2022-09-30T04:11:25;100518.09;;;5.37;100.00
47670;BME280;33408;52.062;11.722;2022-09-30T04:13:51;100522.41;;;5.27;100.00
47670;BME280;33408;52.062;11.722;2022-09-30T04:16:18;100530.09;;;5.30;100.00
47670;BME280;33408;52.062;11.722;2022-09-30T04:18:44;100536.94;;;5.37;100.00
47670;BME280;33408;52.062;11.722;2022-09-30T04:21:12;100531.81;;;5.25;100.00
47670;BME280;33408;52.062;11.722;2022-09-30T04:23:40;100543.81;;;5.38;100.00
47670;BME280;33408;52.062;11.722;2022-09-30T04:26:10;100544.66;;;5.40;100.00
47670;BME280;33408;52.062;11.722;2022-09-30T04:28:37;100540.41;;;5.36;100.00
47670;BME280;33408;52.062;11.722;2022-09-30T04:31:04;100538.66;;;5.35;100.00
47670;BME280;33408;52.062;11.722;2022-09-30T04:33:31;100536.97;;;5.23;100.00
47670;BME280;33408;52.062;11.722;2022-09-30T04:35:59;100536.97;;;5.19;100.00
47670;BME280;33408;52.062;11.722;2022-09-30T04:38:26;100544.66;;;5.19;100.00
47670;BME280;33408;52.062;11.722;2022-09-30T04:40:53;100541.25;;;5.12;100.00
47670;BME280;33408;52.062;11.722;2022-09-30T04:43:22;100531.81;;;5.11;100.00
47670;BME280;33408;52.062;11.722;2022-09-30T04:45:51;100535.22;;;5.11;100.00
47670;BME280;33408;52.062;11.722;2022-09-30T04:48:18;100537.81;;;5.13;100.00
47670;BME280;33408;52.062;11.722;2022-09-30T04:50:45;100540.34;;;5.02;100.00
47670;BME280;33408;52.062;11.722;2022-09-30T04:53:12;100541.22;;;5.04;100.00
47670;BME280;33408;52.062;11.722;2022-09-30T04:55:40;100537.78;;;5.08;100.00
47670;BME280;33408;52.062;11.722;2022-09-30T04:58:06;100554.06;;;4.95;100.00
47670;BME280;33408;52.062;11.722;2022-09-30T05:00:34;100552.34;;;4.97;100.00
47670;BME280;33408;52.062;11.722;2022-09-30T05:03:01;100569.47;;;4.97;100.00
47670;BME280;33408;52.062;11.722;2022-09-30T05:05:28;100557.47;;;4.96;100.00
47670;BME280;33408;52.062;11.722;2022-09-30T05:07:58;100566.06;;;5.01;100.00
47670;BME280;33408;52.062;11.722;2022-09-30T05:10:25;100570.31;;;5.02;100.00
47670;BME280;33408;52.062;11.722;2022-09-30T05:12:52;100568.63;;;4.98;100.00
47670;BME280;33408;52.062;11.722;2022-09-30T05:15:19;100566.91;;;4.98;100.00
47670;BME280;33408;52.062;11.722;2022-09-30T05:17:48;100576.31;;;5.04;100.00
47670;BME280;33408;52.062;11.722;2022-09-30T05:20:15;100576.28;;;4.84;100.00
47670;BME280;33408;52.062;11.722;2022-09-30T05:22:42;100572.84;;;4.77;100.00
47670;BME280;33408;52.062;11.722;2022-09-30T05:25:09;100573.72;;;4.84;100.00
47670;BME280;33408;52.062;11.722;2022-09-30T05:27:35;100572.88;;;4.96;100.00
47670;BME280;33408;52.062;11.722;2022-09-30T05:30:02;100575.41;;;4.75;100.00
47670;BME280;33408;52.062;11.722;2022-09-30T05:32:30;100590.00;;;4.89;100.00
47670;BME280;33408;52.062;11.722;2022-09-30T05:34:58;100592.53;;;4.69;100.00
47670;BME280;33408;52.062;11.722;2022-09-30T05:37:27;100590.81;;;4.71;100.00
47670;BME280;33408;52.062;11.722;2022-09-30T05:39:54;100589.97;;;4.84;100.00
47670;BME280;33408;52.062;11.722;2022-09-30T05:42:21;100598.59;;;5.08;100.00
47670;BME280;33408;52.062;11.722;2022-09-30T05:44:47;100602.91;;;5.10;100.00
47670;BME280;33408;52.062;11.722;2022-09-30T05:47:14;100604.63;;;5.18;100.00
47670;BME280;33408;52.062;11.722;2022-09-30T05:49:40;100608.91;;;5.13;100.00
47670;BME280;33408;52.062;11.722;2022-09-30T05:52:08;100612.31;;;5.15;100.00
47670;BME280;33408;52.062;11.722;2022-09-30T05:54:36;100620.91;;;5.32;100.00
47670;BME280;33408;52.062;11.722;2022-09-30T05:57:02;100622.66;;;5.33;100.00
47670;BME280;33408;52.062;11.722;2022-09-30T05:59:29;100614.09;;;5.54;100.00
47670;BME280;33408;52.062;11.722;2022-09-30T06:01:55;100608.94;;;5.68;100.00
47670;BME280;33408;52.062;11.722;2022-09-30T06:04:22;100608.94;;;5.83;100.00
47670;BME280;33408;52.062;11.722;2022-09-30T06:06:48;100602.06;;;5.90;100.00
47670;BME280;33408;52.062;11.722;2022-09-30T06:09:16;100612.34;;;5.92;100.00
47670;BME280;33408;52.062;11.722;2022-09-30T06:11:43;100613.19;;;5.94;100.00
47670;BME280;33408;52.062;11.722;2022-09-30T06:14:09;100620.03;;;6.16;100.00
47670;BME280;33408;52.062;11.722;2022-09-30T06:16:36;100614.88;;;6.29;100.00
47670;BME280;33408;52.062;11.722;2022-09-30T06:19:02;100624.34;;;6.16;100.00
47670;BME280;33408;52.062;11.722;2022-09-30T06:21:30;100628.63;;;6.23;100.00
47670;BME280;33408;52.062;11.722;2022-09-30T06:23:56;100625.19;;;6.18;100.00
47670;BME280;33408;52.062;11.722;2022-09-30T06:26:24;100636.28;;;6.48;100.00
47670;BME280;33408;52.062;11.722;2022-09-30T06:28:51;100630.19;;;6.67;100.00
47670;BME280;33408;52.062;11.722;2022-09-30T06:31:17;100635.31;;;6.81;100.00
47670;BME280;33408;52.062;11.722;2022-09-30T06:33:44;100638.63;;;7.00;100.00
47670;BME280;33408;52.062;11.722;2022-09-30T06:36:10;100641.09;;;7.22;100.00
47670;BME280;33408;52.062;11.722;2022-09-30T06:38:37;100639.28;;;7.38;100.00
47670;BME280;33408;52.062;11.722;2022-09-30T06:41:04;100632.28;;;7.54;100.00
47670;BME280;33408;52.062;11.722;2022-09-30T06:43:32;100643.38;;;7.66;100.00
47670;BME280;33408;52.062;11.722;2022-09-30T06:45:58;100645.94;;;7.66;100.00
47670;BME280;33408;52.062;11.722;2022-09-30T06:48:25;100646.75;;;7.75;100.00
47670;BME280;33408;52.062;11.722;2022-09-30T06:50:56;100643.03;;;8.07;100.00
47670;BME280;33408;52.062;11.722;2022-09-30T06:53:23;100645.78;;;7.87;100.00
47670;BME280;33408;52.062;11.722;2022-09-30T06:55:54;100647.31;;;8.06;100.00
47670;BME280;33408;52.062;11.722;2022-09-30T06:58:20;100648.00;;;8.24;100.00
47670;BME280;33408;52.062;11.722;2022-09-30T07:00:56;100651.38;;;8.32;100.00
47670;BME280;33408;52.062;11.722;2022-09-30T07:03:24;100649.56;;;8.38;100.00
47670;BME280;33408;52.062;11.722;2022-09-30T07:05:54;100648.78;;;8.30;100.00
47670;BME280;33408;52.062;11.722;2022-09-30T07:08:22;100658.44;;;8.13;100.00
47670;BME280;33408;52.062;11.722;2022-09-30T07:10:50;100660.13;;;8.17;100.00
47670;BME280;33408;52.062;11.722;2022-09-30T07:13:17;100663.50;;;8.25;100.00
47670;BME280;33408;52.062;11.722;2022-09-30T07:15:43;100674.50;;;8.43;100.00
47670;BME280;33408;52.062;11.722;2022-09-30T07:18:11;100676.25;;;8.42;100.00
47670;BME280;33408;52.062;11.722;2022-09-30T07:20:37;100672.44;;;8.75;100.00
47670;BME280;33408;52.062;11.722;2022-09-30T07:23:04;100674.50;;;8.46;100.00
47670;BME280;33408;52.062;11.722;2022-09-30T07:25:31;100676.88;;;8.64;100.00
47670;BME280;33408;52.062;11.722;2022-09-30T07:27:57;100686.09;;;8.85;100.00
47670;BME280;33408;52.062;11.722;2022-09-30T07:30:24;100677.28;;;9.03;100.00
47670;BME280;33408;52.062;11.722;2022-09-30T07:32:50;100675.31;;;9.19;100.00
47670;BME280;33408;52.062;11.722;2022-09-30T07:35:19;100685.50;;;9.31;100.00
47670;BME280;33408;52.062;11.722;2022-09-30T07:37:45;100680.28;;;9.36;100.00
47670;BME280;33408;52.062;11.722;2022-09-30T07:40:12;100680.91;;;9.52;100.00
47670;BME280;33408;52.062;11.722;2022-09-30T07:42:39;100665.66;;;9.88;100.00
47670;BME280;33408;52.062;11.722;2022-09-30T07:45:10;100664.06;;;10.34;100.00
47670;BME280;33408;52.062;11.722;2022-09-30T07:47:40;100663.19;;;10.30;100.00
47670;BME280;33408;52.062;11.722;2022-09-30T07:50:06;100667.47;;;10.36;100.00
47670;BME280;33408;52.062;11.722;2022-09-30T07:52:36;100681.03;;;10.50;100.00
47670;BME280;33408;52.062;11.722;2022-09-30T07:55:03;100678.72;;;10.33;100.00
47670;BME280;33408;52.062;11.722;2022-09-30T07:57:29;100682.00;;;10.43;100.00
47670;BME280;33408;52.062;11.722;2022-09-30T07:59:56;100681.69;;;10.60;100.00
47670;BME280;33408;52.062;11.722;2022-09-30T08:02:22;100679.59;;;10.34;100.00
47670;BME280;33408;52.062;11.722;2022-09-30T08:04:49;100684.31;;;10.58;100.00
47670;BME280;33408;52.062;11.722;2022-09-30T08:07:16;100695.94;;;10.83;100.00
47670;BME280;33408;52.062;11.722;2022-09-30T08:09:45;100702.78;;;10.87;100.00
47670;BME280;33408;52.062;11.722;2022-09-30T08:12:11;100699.09;;;10.97;100.00
47670;BME280;33408;52.062;11.722;2022-09-30T08:14:38;100702.88;;;11.62;100.00
47670;BME280;33408;52.062;11.722;2022-09-30T08:17:04;100698.16;;;11.42;100.00
47670;BME280;33408;52.062;11.722;2022-09-30T08:19:31;100690.25;;;11.84;100.00
47670;BME280;33408;52.062;11.722;2022-09-30T08:21:58;100691.97;;;11.85;100.00
47670;BME280;33408;52.062;11.722;2022-09-30T08:24:25;100702.25;;;11.88;100.00
47670;BME280;33408;52.062;11.722;2022-09-30T08:26:54;100710.16;;;12.21;100.00
47670;BME280;33408;52.062;11.722;2022-09-30T08:29:21;100714.44;;;12.24;100.00
47670;BME280;33408;52.062;11.722;2022-09-30T08:31:47;100716.75;;;12.33;100.00
47670;BME280;33408;52.062;11.722;2022-09-30T08:34:15;100711.03;;;12.20;100.00
47670;BME280;33408;52.062;11.722;2022-09-30T08:36:42;100706.81;;;12.49;100.00
47670;BME280;33408;52.062;11.722;2022-09-30T08:39:10;100713.19;;;12.70;100.00
47670;BME280;33408;52.062;11.722;2022-09-30T08:42:05;100711.97;;;12.50;100.00
47670;BME280;33408;52.062;11.722;2022-09-30T08:44:41;100722.66;;;12.72;100.00
47670;BME280;33408;52.062;11.722;2022-09-30T08:47:20;100721.63;;;12.78;100.00
47670;BME280;33408;52.062;11.722;2022-09-30T08:50:01;100728.66;;;12.74;100.00
47670;BME280;33408;52.062;11.722;2022-09-30T08:52:33;100727.88;;;13.02;100.00
47670;BME280;33408;52.062;11.722;2022-09-30T08:55:00;100728.28;;;13.18;100.00
47670;BME280;33408;52.062;11.722;2022-09-30T08:57:34;100731.41;;;13.01;100.00
47670;BME280;33408;52.062;11.722;2022-09-30T09:00:04;100720.47;;;13.18;100.00
47670;BME280;33408;52.062;11.722;2022-09-30T09:02:38;100716.09;;;13.20;100.00
47670;BME280;33408;52.062;11.722;2022-09-30T09:05:16;100720.38;;;13.53;100.00
47670;BME280;33408;52.062;11.722;2022-09-30T09:07:53;100718.97;;;13.11;100.00
47670;BME280;33408;52.062;11.722;2022-09-30T09:10:26;100722.22;;;13.47;100.00
47670;BME280;33408;52.062;11.722;2022-09-30T09:13:03;100722.72;;;13.60;100.00
47670;BME280;33408;52.062;11.722;2022-09-30T09:15:44;100723.41;;;13.67;100.00
47670;BME280;33408;52.062;11.722;2022-09-30T09:18:25;100726.13;;;13.34;100.00
47670;BME280;33408;52.062;11.722;2022-09-30T09:20:55;100721.22;;;13.81;100.00
47670;BME280;33408;52.062;11.722;2022-09-30T09:23:22;100717.03;;;14.02;100.00
47670;BME280;33408;52.062;11.722;2022-09-30T09:25:50;100722.41;;;13.98;100.00
47670;BME280;33408;52.062;11.722;2022-09-30T09:28:30;100719.84;;;13.96;98.08
47670;BME280;33408;52.062;11.722;2022-09-30T09:31:02;100719.81;;;13.98;96.25
47670;BME280;33408;52.062;11.722;2022-09-30T09:33:30;100712.47;;;14.09;95.27
47670;BME280;33408;52.062;11.722;2022-09-30T09:36:04;100711.31;;;14.18;93.40
47670;BME280;33408;52.062;11.722;2022-09-30T09:38:39;100711.69;;;14.32;94.06
47670;BME280;33408;52.062;11.722;2022-09-30T09:41:22;100704.22;;;14.47;88.57
47670;BME280;33408;52.062;11.722;2022-09-30T09:43:57;100702.81;;;14.63;89.39
47670;BME280;33408;52.062;11.722;2022-09-30T09:46:29;100704.47;;;14.66;88.43
47670;BME280;33408;52.062;11.722;2022-09-30T09:54:58;100713.09;;;14.68;87.22
47670;BME280;33408;52.062;11.722;2022-09-30T09:57:26;100708.91;;;15.11;84.57
47670;BME280;33408;52.062;11.722;2022-09-30T09:59:59;100713.00;;;14.94;85.77
47670;BME280;33408;52.062;11.722;2022-09-30T10:02:57;100701.38;;;14.80;87.04
47670;BME280;33408;52.062;11.722;2022-09-30T10:05:25;100701.78;;;14.92;86.69
47670;BME280;33408;52.062;11.722;2022-09-30T10:08:08;100700.81;;;14.70;86.67
47670;BME280;33408;52.062;11.722;2022-09-30T10:10:43;100703.69;;;14.64;86.21
47670;BME280;33408;52.062;11.722;2022-09-30T10:13:15;100693.34;;;14.84;83.08
47670;BME280;33408;52.062;11.722;2022-09-30T10:15:43;100697.50;;;15.13;82.59
47670;BME280;33408;52.062;11.722;2022-09-30T10:18:17;100695.28;;;15.03;81.52
47670;BME280;33408;52.062;11.722;2022-09-30T10:20:51;100693.25;;;14.87;82.25
47670;BME280;33408;52.062;11.722;2022-09-30T10:23:22;100688.19;;;15.06;82.48
47670;BME280;33408;52.062;11.722;2022-09-30T10:25:59;100693.44;;;15.28;77.95
47670;BME280;33408;52.062;11.722;2022-09-30T10:28:29;100693.91;;;15.16;81.08
47670;BME280;33408;52.062;11.722;2022-09-30T10:31:11;100693.84;;;14.94;79.48
47670;BME280;33408;52.062;11.722;2022-09-30T10:33:42;100683.94;;;15.04;82.03
47670;BME280;33408;52.062;11.722;2022-09-30T10:36:13;100683.66;;;15.34;80.84
47670;BME280;33408;52.062;11.722;2022-09-30T10:38:47;100688.47;;;15.44;82.63
47670;BME280;33408;52.062;11.722;2022-09-30T10:41:21;100683.25;;;15.66;77.21
47670;BME280;33408;52.062;11.722;2022-09-30T10:43:51;100679.53;;;15.50;74.30
47670;BME280;33408;52.062;11.722;2022-09-30T10:46:23;100680.47;;;15.49;76.57
47670;BME280;33408;52.062;11.722;2022-09-30T10:48:50;100675.78;;;15.57;73.74
47670;BME280;33408;52.062;11.722;2022-09-30T10:51:23;100672.72;;;15.68;73.34
47670;BME280;33408;52.062;11.722;2022-09-30T10:53:51;100663.03;;;15.92;71.07
47670;BME280;33408;52.062;11.722;2022-09-30T10:56:41;100664.09;;;15.88;69.54
47670;BME280;33408;52.062;11.722;2022-09-30T10:59:30;100658.81;;;15.90;69.28
47670;BME280;33408;52.062;11.722;2022-09-30T11:02:10;100665.41;;;16.19;70.45
47670;BME280;33408;52.062;11.722;2022-09-30T11:04:43;100662.84;;;16.17;69.72
47670;BME280;33408;52.062;11.722;2022-09-30T11:07:20;100663.03;;;16.33;69.33
47670;BME280;33408;52.062;11.722;2022-09-30T11:09:54;100660.50;;;16.32;69.09
47670;BME280;33408;52.062;11.722;2022-09-30T11:12:30;100666.31;;;16.38;67.44
47670;BME280;33408;52.062;11.722;2022-09-30T11:15:07;100669.97;;;15.93;68.82
47670;BME280;33408;52.062;11.722;2022-09-30T11:17:45;100663.91;;;15.93;65.44
47670;BME280;33408;52.062;11.722;2022-09-30T11:20:18;100663.44;;;16.24;63.59
47670;BME280;33408;52.062;11.722;2022-09-30T11:22:53;100660.69;;;16.27;65.85
47670;BME280;33408;52.062;11.722;2022-09-30T11:25:27;100661.63;;;16.26;63.81
47670;BME280;33408;52.062;11.722;2022-09-30T11:28:15;100657.09;;;16.30;63.72
47670;BME280;33408;52.062;11.722;2022-09-30T11:30:51;100668.72;;;16.22;67.18
47670;BME280;33408;52.062;11.722;2022-09-30T11:33:33;100652.25;;;16.20;65.14
47670;BME280;33408;52.062;11.722;2022-09-30T11:36:11;100658.59;;;16.35;64.23
47670;BME280;33408;52.062;11.722;2022-09-30T11:38:53;100659.97;;;16.44;65.23
47670;BME280;33408;52.062;11.722;2022-09-30T11:41:28;100663.50;;;16.83;66.57
47670;BME280;33408;52.062;11.722;2022-09-30T11:44:03;100661.97;;;16.77;64.37
47670;BME280;33408;52.062;11.722;2022-09-30T11:49:36;100659.91;;;16.46;60.22
47670;BME280;33408;52.062;11.722;2022-09-30T11:52:10;100659.06;;;16.25;61.48
47670;BME280;33408;52.062;11.722;2022-09-30T11:54:57;100656.53;;;16.82;62.92
47670;BME280;33408;52.062;11.722;2022-09-30T11:57:34;100654.44;;;16.90;60.75
47670;BME280;33408;52.062;11.722;2022-09-30T12:00:08;100654.53;;;16.68;61.68
47670;BME280;33408;52.062;11.722;2022-09-30T12:02:41;100658.31;;;16.81;61.88
47670;BME280;33408;52.062;11.722;2022-09-30T12:05:13;100653.13;;;17.00;61.17
47670;BME280;33408;52.062;11.722;2022-09-30T12:07:46;100665.44;;;16.77;60.44
47670;BME280;33408;52.062;11.722;2022-09-30T12:10:18;100663.00;;;16.74;59.44
47670;BME280;33408;52.062;11.722;2022-09-30T12:12:48;100654.28;;;16.34;62.01
47670;BME280;33408;52.062;11.722;2022-09-30T12:15:18;100653.28;;;16.37;62.25
47670;BME280;33408;52.062;11.722;2022-09-30T12:17:47;100653.47;;;16.13;61.43
47670;BME280;33408;52.062;11.722;2022-09-30T12:20:23;100653.44;;;16.73;59.13
47670;BME280;33408;52.062;11.722;2022-09-30T12:22:53;100656.16;;;17.10;58.65
47670;BME280;33408;52.062;11.722;2022-09-30T12:25:25;100658.81;;;17.27;58.38
47670;BME280;33408;52.062;11.722;2022-09-30T12:27:57;100659.75;;;17.07;60.24
47670;BME280;33408;52.062;11.722;2022-09-30T12:30:47;100663.41;;;16.84;60.49
47670;BME280;33408;52.062;11.722;2022-09-30T12:33:25;100656.56;;;17.01;60.21
47670;BME280;33408;52.062;11.722;2022-09-30T12:36:20;100654.34;;;16.72;62.03
47670;BME280;33408;52.062;11.722;2022-09-30T12:39:06;100658.19;;;17.03;59.43
47670;BME280;33408;52.062;11.722;2022-09-30T12:41:47;100652.03;;;17.60;58.07
47670;BME280;33408;52.062;11.722;2022-09-30T12:47:37;100649.06;;;18.02;54.47
47670;BME280;33408;52.062;11.722;2022-09-30T12:50:12;100647.84;;;18.26;54.06
47670;BME280;33408;52.062;11.722;2022-09-30T12:52:41;100645.34;;;18.07;53.22
47670;BME280;33408;52.062;11.722;2022-09-30T12:55:24;100648.50;;;18.13;52.98
47670;BME280;33408;52.062;11.722;2022-09-30T12:57:53;100643.00;;;18.35;53.05
47670;BME280;33408;52.062;11.722;2022-09-30T13:00:21;100644.97;;;17.97;53.13
47670;BME280;33408;52.062;11.722;2022-09-30T13:02:53;100648.00;;;17.70;50.08
47670;BME280;33408;52.062;11.722;2022-09-30T13:05:46;100639.25;;;17.71;49.78
47670;BME280;33408;52.062;11.722;2022-09-30T13:08:39;100638.94;;;17.95;49.23
47670;BME280;33408;52.062;11.722;2022-09-30T13:11:39;100632.00;;;17.76;49.45
47670;BME280;33408;52.062;11.722;2022-09-30T13:14:20;100629.88;;;17.65;48.88